Time;durP1;ratioP1;P1;durP2;ratioP2;P2;SDS_P1;SDS_P2;PMS_P1;PMS_P2;Temp;Humidity;BMP_temperature;BMP_pressure;BME280_temperature;BME280_humidity;BME280_pressure;Samples;Min_cycle;Max_cycle;Signal;HPM_P1;HPM_P2
2021/03/17 00:01:14;;;;;;;16.23;14.40;;;5.70;99.90;;;;;;5054339;28;20161;-65
2021/03/17 00:03:39;;;;;;;14.43;12.93;;;5.70;99.90;;;;;;5054328;28;20185;-65
2021/03/17 00:06:05;;;;;;;16.83;14.00;;;5.70;99.90;;;;;;5054016;28;20391;-65
2021/03/17 00:08:31;;;;;;;15.23;13.73;;;5.70;99.90;;;;;;5054132;28;20587;-65
2021/03/17 00:10:57;;;;;;;16.30;13.43;;;5.60;99.90;;;;;;5053970;28;20387;-65
2021/03/17 00:13:26;;;;;;;15.77;13.27;;;5.60;99.90;;;;;;5053935;28;20633;-65
2021/03/17 00:15:55;;;;;;;19.10;13.83;;;5.70;99.90;;;;;;5052986;28;20248;-65
2021/03/17 00:18:21;;;;;;;16.67;14.97;;;5.70;99.90;;;;;;5053982;28;20483;-65
2021/03/17 00:20:46;;;;;;;16.77;15.07;;;5.70;99.90;;;;;;5053612;28;20990;-65
2021/03/17 00:23:12;;;;;;;15.60;14.10;;;5.70;99.90;;;;;;5053581;28;20209;-65
2021/03/17 00:25:39;;;;;;;17.47;14.50;;;5.70;99.90;;;;;;5053524;28;20637;-65
2021/03/17 00:28:06;;;;;;;14.30;12.77;;;5.70;99.90;;;;;;5053812;28;20158;-65
2021/03/17 00:30:33;;;;;;;16.50;14.80;;;5.70;99.90;;;;;;5053562;28;20440;-65
2021/03/17 00:33:00;;;;;;;17.07;15.50;;;5.70;99.90;;;;;;5053633;28;20413;-65
2021/03/17 00:35:26;;;;;;;15.90;14.40;;;5.70;99.90;;;;;;5052392;28;20397;-65
2021/03/17 00:37:52;;;;;;;16.97;15.37;;;5.70;99.90;;;;;;5053543;28;20428;-65
2021/03/17 00:40:18;;;;;;;17.67;14.50;;;5.70;99.90;;;;;;5053365;28;20437;-65
2021/03/17 00:42:44;;;;;;;16.87;15.10;;;5.70;99.90;;;;;;5052036;28;20507;-65
2021/03/17 00:45:10;;;;;;;17.00;14.67;;;5.70;99.90;;;;;;5053504;28;20450;-65
2021/03/17 00:47:37;;;;;;;19.43;15.73;;;5.70;99.90;;;;;;5053658;28;20215;-65
2021/03/17 00:50:05;;;;;;;17.37;15.77;;;5.70;99.90;;;;;;5053392;28;20399;-65
2021/03/17 00:52:31;;;;;;;18.63;14.23;;;5.70;99.90;;;;;;5053399;28;20417;-65
2021/03/17 00:54:56;;;;;;;16.90;14.60;;;5.70;99.90;;;;;;5052877;28;20401;-65
2021/03/17 00:57:22;;;;;;;17.57;15.03;;;5.70;99.90;;;;;;5053231;28;20173;-65
2021/03/17 00:59:47;;;;;;;16.23;14.63;;;5.70;99.90;;;;;;5053316;28;20208;-65
2021/03/17 01:02:13;;;;;;;16.57;15.10;;;5.80;99.90;;;;;;5053130;28;20162;-65
2021/03/17 01:04:38;;;;;;;15.93;14.23;;;5.80;99.90;;;;;;5052905;28;20190;-65
2021/03/17 01:07:06;;;;;;;15.57;13.90;;;5.80;99.90;;;;;;5053250;28;20501;-65
2021/03/17 01:09:32;;;;;;;15.27;13.97;;;5.80;99.90;;;;;;5052433;28;20188;-65
2021/03/17 01:11:57;;;;;;;16.40;14.87;;;5.80;99.90;;;;;;5052877;28;20402;-65
2021/03/17 01:14:23;;;;;;;17.20;14.10;;;5.80;99.90;;;;;;5053120;28;20616;-65
2021/03/17 01:16:49;;;;;;;14.80;13.43;;;5.80;99.90;;;;;;5053008;28;20184;-65
2021/03/17 01:19:14;;;;;;;14.80;13.50;;;5.90;99.90;;;;;;5052845;28;20211;-65
2021/03/17 01:21:40;;;;;;;17.53;14.73;;;5.80;99.90;;;;;;5052865;28;20617;-65
2021/03/17 01:24:06;;;;;;;16.57;14.60;;;5.80;99.90;;;;;;5052842;28;20205;-65
2021/03/17 01:26:31;;;;;;;15.53;13.97;;;5.80;99.90;;;;;;5052757;28;20163;-65
2021/03/17 01:28:57;;;;;;;15.30;13.73;;;5.80;99.90;;;;;;5052748;28;20424;-65
2021/03/17 01:31:22;;;;;;;15.70;14.03;;;5.80;99.90;;;;;;5052804;28;20164;-65
2021/03/17 01:33:48;;;;;;;14.93;13.53;;;5.80;99.90;;;;;;5052570;28;20645;-65
2021/03/17 01:36:13;;;;;;;16.40;13.70;;;5.80;99.90;;;;;;5053151;28;20158;-65
2021/03/17 01:38:39;;;;;;;14.73;13.27;;;5.80;99.90;;;;;;5052657;28;20161;-65
2021/03/17 01:41:04;;;;;;;14.53;13.03;;;5.80;99.90;;;;;;5052580;28;20170;-65
2021/03/17 01:43:30;;;;;;;15.57;14.07;;;5.80;99.90;;;;;;5052692;28;20674;-65
2021/03/17 01:45:56;;;;;;;21.00;14.07;;;5.80;99.90;;;;;;5052507;28;20194;-65
2021/03/17 01:48:21;;;;;;;16.67;14.73;;;5.80;99.90;;;;;;5052564;28;20612;-65
2021/03/17 01:50:51;;;;;;;16.30;13.23;;;5.70;99.90;;;;;;5052796;28;20263;-65
2021/03/17 01:53:22;;;;;;;15.47;14.03;;;5.70;99.90;;;;;;5052539;28;20166;-65
2021/03/17 01:55:48;;;;;;;15.50;13.93;;;5.70;99.90;;;;;;5051647;28;20394;-65
2021/03/17 01:58:14;;;;;;;14.17;12.73;;;5.70;99.90;;;;;;5052884;28;20919;-65
2021/03/17 02:00:40;;;;;;;16.80;15.00;;;5.70;99.90;;;;;;5052470;28;20154;-65
2021/03/17 02:03:08;;;;;;;17.13;14.60;;;5.70;99.90;;;;;;5052659;28;20478;-65
2021/03/17 02:05:37;;;;;;;15.80;12.77;;;5.70;99.90;;;;;;5053616;28;20487;-65
2021/03/17 02:08:05;;;;;;;16.00;13.63;;;5.70;99.90;;;;;;5056177;28;20414;-65
2021/03/17 02:10:31;;;;;;;15.90;14.50;;;5.70;99.90;;;;;;5056323;28;20415;-65
2021/03/17 02:26:55;;;;;;;22.00;14.40;;;5.70;99.90;;;;;;5131461;27;20568;-64
2021/03/17 02:34:51;;;;;;;15.13;13.53;;;5.70;99.90;;;;;;5131338;27;20613;-65
2021/03/17 02:37:21;;;;;;;17.13;13.73;;;5.70;99.90;;;;;;5131361;27;20794;-65
2021/03/17 02:39:57;;;;;;;21.23;14.90;;;5.70;99.90;;;;;;5131681;27;20385;-65
2021/03/17 02:42:30;;;;;;;17.53;15.23;;;5.70;99.90;;;;;;5113089;28;20404;-65
2021/03/17 02:45:03;;;;;;;22.80;16.97;;;5.60;99.90;;;;;;5110709;28;20380;-65
2021/03/17 02:47:35;;;;;;;17.40;15.70;;;5.60;99.90;;;;;;5110415;28;20421;-65
2021/03/17 02:50:03;;;;;;;18.30;14.70;;;5.60;99.90;;;;;;5110656;28;20399;-65
2021/03/17 02:52:33;;;;;;;19.13;15.70;;;5.60;99.90;;;;;;5110417;28;20380;-65
2021/03/17 02:55:00;;;;;;;21.70;15.83;;;5.60;99.90;;;;;;5110901;28;20814;-65
2021/03/17 02:57:27;;;;;;;20.33;18.13;;;5.60;99.90;;;;;;5109896;28;20400;-65
2021/03/17 02:59:55;;;;;;;22.70;17.77;;;5.60;99.90;;;;;;5110266;28;20397;-65
2021/03/17 03:02:21;;;;;;;18.17;16.23;;;5.60;99.90;;;;;;5110391;28;20431;-65
2021/03/17 03:04:49;;;;;;;19.60;15.10;;;5.50;99.90;;;;;;5109072;28;20419;-65
2021/03/17 03:07:15;;;;;;;23.43;16.47;;;5.50;99.90;;;;;;5110228;28;20392;-65
2021/03/17 03:09:42;;;;;;;21.63;15.90;;;5.50;99.90;;;;;;5110291;28;20405;-65
2021/03/17 03:12:09;;;;;;;21.30;15.90;;;5.40;99.90;;;;;;5110222;28;20426;-65
2021/03/17 03:14:37;;;;;;;19.17;16.50;;;5.40;99.90;;;;;;5109280;28;20439;-65
2021/03/17 03:17:04;;;;;;;21.00;17.10;;;5.40;99.90;;;;;;5110187;28;20404;-65
2021/03/17 03:19:32;;;;;;;22.97;18.00;;;5.30;99.90;;;;;;5110218;28;20898;-65
2021/03/17 03:22:00;;;;;;;24.00;16.70;;;5.30;99.90;;;;;;5110279;28;20389;-65
2021/03/17 03:24:26;;;;;;;18.47;15.83;;;5.30;99.90;;;;;;5110037;28;20398;-65
2021/03/17 03:26:53;;;;;;;18.97;16.70;;;5.30;99.90;;;;;;5110380;28;20391;-65
2021/03/17 03:29:19;;;;;;;20.97;16.80;;;5.30;99.90;;;;;;5109818;28;20412;-65
2021/03/17 03:31:47;;;;;;;20.00;16.30;;;5.20;99.90;;;;;;5112463;28;20885;-65
2021/03/17 03:34:14;;;;;;;22.60;18.00;;;5.20;99.90;;;;;;5130120;27;20295;-65
2021/03/17 03:36:40;;;;;;;19.83;17.70;;;5.20;99.90;;;;;;5130339;27;20396;-65
2021/03/17 03:39:06;;;;;;;20.93;18.60;;;5.20;99.90;;;;;;5130501;27;20535;-65
2021/03/17 03:41:32;;;;;;;23.80;21.30;;;5.20;99.90;;;;;;5130137;27;20188;-65
2021/03/17 03:43:58;;;;;;;23.60;20.77;;;5.20;99.90;;;;;;5128343;27;20959;-65
2021/03/17 03:46:23;;;;;;;26.30;23.20;;;5.20;99.90;;;;;;5115922;28;20515;-65
2021/03/17 03:48:49;;;;;;;28.90;21.67;;;5.20;99.90;;;;;;5115415;28;20260;-65
2021/03/17 03:51:18;;;;;;;22.63;20.23;;;5.20;99.90;;;;;;5116430;28;20158;-65
2021/03/17 03:54:24;;;;;;;21.37;19.07;;;5.20;99.90;;;;;;5116251;28;20194;-65
2021/03/17 03:57:13;;;;;;;18.60;16.70;;;5.10;99.90;;;;;;5104434;28;20907;-65
2021/03/17 03:59:43;;;;;;;17.27;15.47;;;5.20;99.90;;;;;;5115024;28;20936;-65
2021/03/17 04:02:11;;;;;;;16.00;14.40;;;5.20;99.90;;;;;;5116043;28;20389;-65
2021/03/17 04:04:40;;;;;;;15.80;14.13;;;5.10;99.90;;;;;;5115930;28;20427;-65
2021/03/17 04:07:07;;;;;;;14.63;12.93;;;5.10;99.90;;;;;;5114099;28;20428;-65
2021/03/17 04:09:42;;;;;;;15.30;13.70;;;5.10;99.90;;;;;;5115803;28;20407;-65
2021/03/17 04:12:09;;;;;;;15.13;13.63;;;5.10;99.90;;;;;;5116119;28;20392;-65
2021/03/17 04:14:36;;;;;;;15.13;13.17;;;5.10;99.90;;;;;;5115609;28;20443;-65
2021/03/17 04:17:10;;;;;;;13.97;12.57;;;5.10;99.90;;;;;;5116097;28;20497;-65
2021/03/17 04:19:40;;;;;;;14.43;12.93;;;5.10;99.90;;;;;;5114780;28;20392;-65
2021/03/17 04:22:08;;;;;;;13.73;12.43;;;5.10;99.90;;;;;;5115855;28;20402;-65
2021/03/17 04:24:35;;;;;;;11.60;10.50;;;5.10;99.90;;;;;;5114702;28;20457;-65
2021/03/17 04:27:02;;;;;;;13.30;10.70;;;5.10;99.90;;;;;;5115541;28;20420;-65
2021/03/17 04:29:30;;;;;;;11.43;10.23;;;5.10;99.90;;;;;;5105966;28;20401;-65
2021/03/17 04:31:57;;;;;;;11.50;10.40;;;5.00;99.90;;;;;;5095027;28;20917;-65
2021/03/17 04:34:23;;;;;;;11.10;10.07;;;5.00;99.90;;;;;;5095190;28;20843;-65
2021/03/17 04:36:50;;;;;;;11.17;10.10;;;5.00;99.90;;;;;;5095163;28;20397;-65
2021/03/17 04:39:17;;;;;;;8.80;7.93;;;4.90;99.90;;;;;;5094973;28;20381;-65
2021/03/17 04:41:44;;;;;;;7.37;6.77;;;4.90;99.90;;;;;;5095371;28;20929;-65
2021/03/17 04:44:11;;;;;;;6.17;5.60;;;4.90;99.90;;;;;;5095004;28;20479;-65
2021/03/17 04:46:37;;;;;;;7.37;5.63;;;4.90;99.90;;;;;;5094750;28;20531;-65
2021/03/17 04:49:03;;;;;;;6.70;6.10;;;4.90;99.90;;;;;;5094746;28;20504;-65
2021/03/17 04:51:29;;;;;;;6.10;5.57;;;4.90;99.90;;;;;;5094571;28;20169;-65
2021/03/17 04:53:55;;;;;;;5.20;4.70;;;4.90;99.90;;;;;;5094468;28;20536;-65
2021/03/17 04:56:24;;;;;;;5.47;4.97;;;4.90;99.90;;;;;;5093403;28;20401;-65
2021/03/17 04:58:52;;;;;;;5.30;4.80;;;4.90;99.90;;;;;;5094833;28;20416;-65
2021/03/17 05:01:19;;;;;;;5.50;5.00;;;4.90;99.90;;;;;;5094937;28;20402;-65
2021/03/17 05:03:47;;;;;;;4.40;4.07;;;4.90;99.90;;;;;;5094430;28;20439;-65
2021/03/17 05:06:13;;;;;;;4.73;4.37;;;4.90;99.90;;;;;;5094388;28;20481;-65
2021/03/17 05:08:43;;;;;;;6.43;5.83;;;4.90;99.90;;;;;;5094312;28;20440;-65
2021/03/17 05:11:09;;;;;;;6.17;5.67;;;4.90;99.90;;;;;;5093165;28;20435;-65
2021/03/17 05:13:36;;;;;;;8.33;7.53;;;5.00;99.90;;;;;;5094876;28;20448;-65
2021/03/17 05:16:04;;;;;;;8.17;7.37;;;4.90;99.90;;;;;;5094286;28;20861;-65
2021/03/17 05:18:31;;;;;;;8.10;7.30;;;4.90;99.90;;;;;;5094330;28;20921;-65
2021/03/17 05:20:57;;;;;;;6.87;6.30;;;4.90;99.90;;;;;;5094172;28;20389;-65
2021/03/17 05:23:23;;;;;;;7.30;6.70;;;4.90;99.90;;;;;;5094105;28;20470;-65
2021/03/17 05:25:50;;;;;;;7.37;6.67;;;4.90;99.90;;;;;;5094030;28;20397;-65
2021/03/17 05:28:17;;;;;;;7.10;6.40;;;4.90;99.90;;;;;;5092989;28;20220;-65
2021/03/17 05:30:47;;;;;;;7.80;7.10;;;4.90;99.90;;;;;;5096434;28;20416;-65
2021/03/17 05:33:14;;;;;;;7.10;6.50;;;4.90;99.90;;;;;;5114230;28;20512;-65
2021/03/17 05:35:40;;;;;;;7.10;6.50;;;4.90;99.90;;;;;;5114403;28;20395;-65
2021/03/17 05:38:07;;;;;;;7.60;6.90;;;4.90;99.90;;;;;;5114055;28;20840;-65
2021/03/17 05:40:34;;;;;;;8.33;7.53;;;4.90;99.90;;;;;;5114352;28;20170;-65
2021/03/17 05:43:02;;;;;;;8.33;7.63;;;5.00;99.90;;;;;;5114071;28;20396;-65
2021/03/17 05:45:29;;;;;;;9.90;9.00;;;5.00;99.90;;;;;;5114022;28;20403;-65
2021/03/17 05:47:55;;;;;;;10.03;8.67;;;5.00;99.90;;;;;;5112027;28;20416;-65
2021/03/17 05:50:22;;;;;;;10.03;9.13;;;5.00;99.90;;;;;;5113915;28;20404;-65
2021/03/17 05:52:48;;;;;;;10.83;9.73;;;5.00;99.90;;;;;;5113741;28;20431;-65
2021/03/17 05:55:15;;;;;;;11.67;10.57;;;5.00;99.90;;;;;;5112789;28;20403;-65
2021/03/17 05:57:43;;;;;;;10.60;9.50;;;5.00;99.90;;;;;;5113695;28;20404;-65
2021/03/17 06:00:11;;;;;;;10.27;9.23;;;5.00;99.90;;;;;;5114003;28;20434;-65
2021/03/17 06:02:38;;;;;;;13.90;11.50;;;5.10;99.90;;;;;;5114031;28;20409;-65
2021/03/17 06:05:05;;;;;;;11.90;10.67;;;5.10;99.90;;;;;;5112915;28;20423;-65
2021/03/17 06:07:41;;;;;;;12.20;10.93;;;5.10;99.90;;;;;;5114321;28;20396;-65
2021/03/17 06:10:08;;;;;;;11.43;10.23;;;5.10;99.90;;;;;;5112504;28;20883;-65
2021/03/17 06:12:36;;;;;;;12.40;11.10;;;5.10;99.90;;;;;;5113891;28;20423;-65
2021/03/17 06:15:04;;;;;;;10.73;9.63;;;5.10;99.90;;;;;;5113900;27;20743;-66
2021/03/17 06:17:33;;;;;;;10.60;9.53;;;5.10;99.90;;;;;;5113619;28;20427;-65
2021/03/17 06:20:01;;;;;;;10.90;9.60;;;5.10;99.90;;;;;;5113770;28;20895;-65
2021/03/17 06:22:27;;;;;;;11.60;10.50;;;5.10;99.90;;;;;;5113028;28;20908;-65
2021/03/17 06:24:54;;;;;;;12.83;11.10;;;5.10;99.90;;;;;;5113482;28;20407;-65
2021/03/17 06:27:20;;;;;;;11.70;10.50;;;5.20;99.90;;;;;;5113527;28;20384;-65
2021/03/17 06:29:46;;;;;;;12.63;11.33;;;5.20;99.90;;;;;;5101196;28;20448;-65
2021/03/17 06:32:12;;;;;;;13.20;11.90;;;5.20;99.90;;;;;;5091936;28;20903;-65
2021/03/17 06:34:53;;;;;;;13.50;12.10;;;5.20;99.90;;;;;;5093294;28;20552;-65
2021/03/17 06:37:33;;;;;;;14.27;12.87;;;5.30;99.90;;;;;;5092968;28;20773;-65
2021/03/17 06:39:59;;;;;;;15.10;13.60;;;5.20;99.90;;;;;;5093632;28;20400;-65
2021/03/17 06:42:39;;;;;;;15.53;14.00;;;5.20;99.90;;;;;;5093347;28;20382;-65
2021/03/17 06:45:05;;;;;;;17.63;15.83;;;5.30;99.90;;;;;;5092969;28;20609;-65
2021/03/17 06:47:31;;;;;;;19.23;17.23;;;5.30;99.90;;;;;;5093075;28;20557;-65
2021/03/17 06:49:56;;;;;;;17.40;15.60;;;5.20;99.90;;;;;;5093116;28;20487;-65
2021/03/17 06:52:39;;;;;;;21.77;18.83;;;5.20;99.90;;;;;;5092967;28;20686;-65
2021/03/17 06:57:51;;;;;;;17.53;15.73;;;5.30;99.90;;;;;;5111702;27;20538;-64
2021/03/17 07:08:31;;;;;;;16.83;15.23;;;5.30;99.90;;;;;;5131343;27;20504;-64
2021/03/17 07:10:58;;;;;;;16.00;14.50;;;5.40;99.90;;;;;;5131274;27;20758;-64
2021/03/17 07:13:25;;;;;;;13.40;12.10;;;5.40;99.90;;;;;;5121855;28;20495;-64
2021/03/17 07:15:56;;;;;;;5.77;5.17;;;5.40;99.90;;;;;;5111169;28;20384;-64
2021/03/17 07:21:00;;;;;;;5.87;3.90;;;5.30;99.90;;;;;;5131498;27;20524;-65
2021/03/17 07:23:40;;;;;;;2.83;2.60;;;4.90;99.90;;;;;;5130317;28;20383;-65
2021/03/17 07:26:17;;;;;;;4.50;4.10;;;4.80;99.90;;;;;;5131483;28;20387;-65
2021/03/17 07:36:58;;;;;;;8.73;3.53;;;4.70;99.90;;;;;;5131460;27;20501;-64
2021/03/17 07:42:01;;;;;;;5.20;3.87;;;4.70;99.90;;;;;;5131685;27;20499;-64
2021/03/17 07:44:28;;;;;;;5.60;3.67;;;4.80;99.90;;;;;;5131539;28;20436;-64
2021/03/17 07:46:57;;;;;;;4.97;4.13;;;4.90;99.90;;;;;;5126578;28;20511;-64
2021/03/17 07:49:27;;;;;;;6.50;3.73;;;4.90;99.90;;;;;;5111245;27;20765;-65
2021/03/17 07:51:55;;;;;;;6.63;3.50;;;4.90;99.90;;;;;;5110646;28;20876;-64
2021/03/17 07:54:25;;;;;;;6.20;4.37;;;5.00;99.90;;;;;;5111002;28;20896;-64
2021/03/17 07:56:50;;;;;;;8.83;4.67;;;5.00;99.90;;;;;;5111088;28;20392;-64
2021/03/17 07:59:18;;;;;;;6.07;3.80;;;5.10;99.90;;;;;;5110823;28;20438;-64
2021/03/17 08:01:44;;;;;;;6.10;4.60;;;5.20;99.90;;;;;;5110684;28;20190;-64
2021/03/17 08:04:11;;;;;;;4.80;3.70;;;5.30;99.90;;;;;;5111402;28;20741;-64
2021/03/17 08:06:36;;;;;;;4.23;3.47;;;5.40;99.90;;;;;;5110512;28;20457;-64
2021/03/17 08:09:03;;;;;;;4.07;3.40;;;5.50;99.90;;;;;;5110901;28;20392;-65
2021/03/17 08:11:30;;;;;;;5.50;3.90;;;5.80;99.90;;;;;;5110428;28;20159;-65
2021/03/17 08:13:56;;;;;;;8.63;3.40;;;5.90;99.90;;;;;;5110305;28;20400;-64
2021/03/17 08:16:27;;;;;;;6.10;3.50;;;6.10;99.90;;;;;;5109129;28;20403;-64
2021/03/17 08:18:53;;;;;;;5.70;3.43;;;6.20;99.90;;;;;;5110286;28;20411;-65
2021/03/17 08:22:00;;;;;;;6.20;3.40;;;6.30;99.90;;;;;;5111049;28;20451;-64
2021/03/17 08:29:39;;;;;;;4.23;3.33;;;6.40;99.90;;;;;;5090493;28;20580;-65
2021/03/17 08:32:05;;;;;;;6.93;4.03;;;6.50;99.90;;;;;;5090510;28;20416;-65
2021/03/17 08:34:33;;;;;;;6.57;3.40;;;6.50;99.90;;;;;;5089361;28;20387;-65
2021/03/17 08:37:01;;;;;;;4.60;4.03;;;6.40;99.90;;;;;;5090656;28;20914;-65
2021/03/17 08:44:45;;;;;;;4.63;2.93;;;6.30;99.90;;;;;;5131388;27;20504;-65
2021/03/17 08:50:18;;;;;;;4.57;3.80;;;6.80;99.90;;;;;;5111231;27;21056;-64
2021/03/17 08:52:48;;;;;;;6.00;2.97;;;6.80;99.90;;;;;;5110112;28;20392;-64
2021/03/17 09:03:44;;;;;;;6.10;3.10;;;6.90;99.90;;;;;;5111062;27;20497;-65
2021/03/17 09:06:22;;;;;;;5.90;3.80;;;7.20;99.90;;;;;;5109593;28;20752;-65
2021/03/17 09:14:08;;;;;;;4.37;3.40;;;7.20;99.90;;;;;;5090642;27;20511;-64
2021/03/17 09:16:37;;;;;;;6.57;4.33;;;7.00;99.90;;;;;;5089611;28;20957;-64
2021/03/17 09:19:18;;;;;;;5.33;3.40;;;6.90;99.90;;;;;;5090839;28;20813;-64
2021/03/17 09:21:45;;;;;;;3.27;2.97;;;6.70;99.90;;;;;;5090651;28;20464;-64
2021/03/17 09:24:29;;;;;;;7.13;2.83;;;6.50;99.90;;;;;;5090555;28;20381;-64
2021/03/17 09:27:05;;;;;;;5.30;2.40;;;6.20;99.90;;;;;;5090382;28;20389;-64
2021/03/17 09:29:32;;;;;;;2.40;2.17;;;6.00;99.90;;;;;;5089297;28;20412;-64
2021/03/17 09:31:59;;;;;;;3.00;2.43;;;5.80;99.90;;;;;;5090211;28;20921;-64
2021/03/17 09:34:27;;;;;;;2.77;2.03;;;5.60;99.90;;;;;;5089263;28;20452;-64
2021/03/17 09:37:02;;;;;;;7.60;2.50;;;5.50;99.90;;;;;;5090102;28;20477;-64
2021/03/17 09:39:28;;;;;;;14.30;3.20;;;5.30;99.90;;;;;;5088792;28;20497;-64
2021/03/17 09:41:53;;;;;;;4.10;2.70;;;5.20;99.90;;;;;;5090236;28;20493;-64
2021/03/17 09:44:22;;;;;;;3.53;2.43;;;5.10;99.90;;;;;;5090356;28;20178;-64
2021/03/17 09:46:51;;;;;;;3.30;2.47;;;5.10;99.90;;;;;;5088356;28;20195;-64
2021/03/17 09:49:19;;;;;;;2.83;2.63;;;5.10;99.90;;;;;;5090098;28;20385;-64
2021/03/17 09:54:28;;;;;;;5.80;2.77;;;5.20;99.90;;;;;;5110849;27;20549;-64
2021/03/17 09:56:56;;;;;;;3.43;2.50;;;5.30;99.90;;;;;;5109800;28;20380;-64
2021/03/17 10:04:48;;;;;;;5.03;2.80;;;5.90;99.90;;;;;;5110904;27;20502;-65
2021/03/17 10:07:21;;;;;;;4.20;2.90;;;6.10;99.90;;;;;;5111102;28;20372;-65
2021/03/17 10:09:48;;;;;;;3.70;3.03;;;6.30;99.90;;;;;;5111239;28;20384;-65
2021/03/17 10:12:24;;;;;;;3.67;2.97;;;6.50;99.90;;;;;;5110979;28;20892;-65
2021/03/17 10:17:29;;;;;;;5.20;2.70;;;6.80;99.90;;;;;;5111172;27;20550;-64
2021/03/17 10:19:57;;;;;;;6.23;2.97;;;6.90;99.90;;;;;;5106519;28;20983;-64
2021/03/17 10:22:25;;;;;;;3.33;2.63;;;6.90;99.90;;;;;;5090500;28;20405;-65
2021/03/17 10:24:53;;;;;;;3.60;2.63;;;6.90;99.90;;;;;;5089260;28;20470;-64
2021/03/17 10:27:22;;;;;;;3.70;3.07;;;6.90;99.90;;;;;;5090274;28;20924;-64
2021/03/17 10:29:50;;;;;;;7.23;2.90;;;7.00;99.90;;;;;;5103275;28;20430;-64
2021/03/17 10:32:18;;;;;;;4.07;2.90;;;7.00;99.90;;;;;;5110693;28;20430;-64
2021/03/17 10:34:44;;;;;;;3.90;2.83;;;7.10;99.90;;;;;;5110689;28;20420;-64
2021/03/17 10:37:13;;;;;;;6.03;3.33;;;7.10;99.90;;;;;;5108753;28;20459;-64
2021/03/17 10:39:39;;;;;;;3.73;2.80;;;7.10;99.90;;;;;;5109237;28;20920;-64
2021/03/17 10:42:18;;;;;;;4.93;3.33;;;7.10;99.90;;;;;;5110350;28;20396;-64
2021/03/17 10:44:59;;;;;;;4.07;2.77;;;7.20;99.90;;;;;;5110028;28;20396;-64
2021/03/17 10:47:25;;;;;;;4.80;2.47;;;7.30;99.90;;;;;;5109175;28;20428;-64
2021/03/17 10:49:51;;;;;;;4.30;2.60;;;7.40;99.90;;;;;;5110777;28;20405;-64
2021/03/17 10:52:16;;;;;;;3.33;2.50;;;7.40;99.90;;;;;;5110183;28;20227;-64
2021/03/17 10:54:44;;;;;;;5.47;2.33;;;7.40;99.90;;;;;;5109228;28;20416;-64
2021/03/17 10:57:19;;;;;;;6.63;3.70;;;7.40;99.90;;;;;;5110116;28;20194;-64
2021/03/17 10:59:45;;;;;;;4.10;2.60;;;7.50;99.90;;;;;;5110307;28;20384;-64
2021/03/17 11:02:30;;;;;;;4.53;2.43;;;7.40;99.90;;;;;;5109970;28;20385;-64
2021/03/17 11:10:54;;;;;;;5.17;2.60;;;7.20;99.90;;;;;;5128755;27;20509;-66
2021/03/17 11:16:06;;;;;;;4.67;2.57;;;7.20;99.90;;;;;;5131617;27;20517;-64
2021/03/17 11:18:35;;;;;;;4.63;2.93;;;7.10;99.90;;;;;;5131563;28;20746;-64
2021/03/17 11:21:06;;;;;;;5.77;2.87;;;7.00;99.90;;;;;;5131379;28;20420;-64
2021/03/17 11:23:36;;;;;;;4.67;2.50;;;7.00;99.90;;;;;;5130047;28;20901;-64
2021/03/17 11:26:03;;;;;;;8.93;3.10;;;7.10;99.90;;;;;;5131500;28;20384;-64
2021/03/17 11:28:36;;;;;;;4.17;2.93;;;7.20;99.90;;;;;;5122099;28;20403;-64
2021/03/17 11:31:06;;;;;;;5.87;2.33;;;7.40;99.90;;;;;;5131266;28;20389;-64
2021/03/17 11:33:32;;;;;;;3.13;2.03;;;7.50;99.90;;;;;;5131341;28;20451;-64
2021/03/17 11:36:00;;;;;;;3.30;2.03;;;7.60;99.90;;;;;;5130946;28;20394;-64
2021/03/17 11:38:27;;;;;;;2.30;1.70;;;7.70;99.90;;;;;;5130895;28;20148;-64
2021/03/17 11:40:53;;;;;;;3.07;1.83;;;7.90;99.90;;;;;;5130137;28;20904;-64
2021/03/17 11:43:23;;;;;;;3.33;1.80;;;8.10;99.90;;;;;;5129938;28;20961;-64
2021/03/17 11:45:51;;;;;;;3.23;2.00;;;8.10;99.90;;;;;;5129981;28;20620;-64
2021/03/17 11:48:18;;;;;;;5.47;2.90;;;8.10;99.90;;;;;;5129617;28;20401;-64
2021/03/17 11:50:47;;;;;;;4.47;2.40;;;8.10;99.90;;;;;;5130740;28;20484;-64
2021/03/17 11:53:14;;;;;;;5.30;2.13;;;8.10;99.90;;;;;;5129359;28;20498;-64
2021/03/17 11:55:40;;;;;;;4.67;2.07;;;8.10;99.90;;;;;;5129850;28;20440;-64
2021/03/17 11:58:06;;;;;;;4.63;1.80;;;8.00;99.90;;;;;;5130988;27;20929;-64
2021/03/17 12:00:32;;;;;;;5.33;2.53;;;7.90;99.90;;;;;;5129303;28;20382;-64
2021/03/17 12:02:58;;;;;;;6.10;2.80;;;7.90;99.90;;;;;;5129882;28;20263;-65
2021/03/17 12:05:25;;;;;;;3.23;1.53;;;7.80;99.90;;;;;;5130747;28;20736;-65
2021/03/17 12:07:51;;;;;;;3.10;1.87;;;7.70;99.90;;;;;;5130728;27;20736;-65
2021/03/17 12:10:17;;;;;;;3.60;1.90;;;7.70;99.90;;;;;;5130955;27;20451;-65
2021/03/17 12:12:44;;;;;;;4.53;1.80;;;7.60;99.90;;;;;;5129110;28;20163;-65
2021/03/17 12:15:12;;;;;;;2.80;2.00;;;7.60;99.90;;;;;;5129916;28;20965;-65
2021/03/17 12:17:39;;;;;;;6.20;2.50;;;7.60;99.90;;;;;;5130256;27;20394;-65
2021/03/17 12:20:07;;;;;;;6.40;3.10;;;7.60;99.90;;;;;;5129327;28;20409;-66
2021/03/17 12:22:33;;;;;;;4.30;2.53;;;7.50;99.90;;;;;;5112229;28;20385;-65
2021/03/17 12:24:58;;;;;;;6.10;2.70;;;7.60;99.90;;;;;;5130640;27;20958;-65
2021/03/17 12:27:24;;;;;;;4.80;3.20;;;7.70;99.90;;;;;;5115906;28;20580;-65
2021/03/17 12:29:50;;;;;;;5.40;2.93;;;7.80;99.90;;;;;;5103320;28;20178;-65
2021/03/17 12:32:16;;;;;;;7.10;2.87;;;7.90;99.90;;;;;;5096079;28;20637;-65
2021/03/17 12:34:43;;;;;;;5.33;2.77;;;8.00;99.90;;;;;;5095767;28;20186;-65
2021/03/17 12:37:09;;;;;;;4.73;2.30;;;8.00;99.90;;;;;;5095684;28;20407;-65
2021/03/17 12:39:35;;;;;;;5.13;2.07;;;8.10;99.90;;;;;;5095905;28;20399;-65
2021/03/17 12:42:00;;;;;;;3.73;2.57;;;8.00;99.90;;;;;;5095649;28;20395;-65
2021/03/17 12:44:26;;;;;;;5.70;2.50;;;7.80;99.90;;;;;;5095926;28;20530;-66
2021/03/17 12:46:52;;;;;;;5.90;2.30;;;7.60;99.90;;;;;;5095693;28;20255;-66
2021/03/17 12:49:17;;;;;;;2.97;2.00;;;7.60;99.90;;;;;;5095898;28;20247;-65
2021/03/17 12:51:43;;;;;;;3.33;2.30;;;7.60;99.90;;;;;;5095675;28;20180;-66
2021/03/17 12:54:09;;;;;;;4.13;2.20;;;7.70;99.90;;;;;;5096025;28;20201;-66
2021/03/17 12:56:34;;;;;;;6.73;2.30;;;7.70;99.90;;;;;;5095479;28;20150;-65
2021/03/17 12:59:01;;;;;;;2.27;1.50;;;7.80;99.90;;;;;;5095246;28;20154;-65
2021/03/17 13:01:27;;;;;;;6.63;3.03;;;7.90;99.90;;;;;;5095638;28;20167;-65
2021/03/17 13:03:53;;;;;;;5.23;3.17;;;8.00;99.90;;;;;;5095446;28;20424;-65
2021/03/17 13:06:18;;;;;;;3.23;2.17;;;8.20;99.90;;;;;;5095941;28;20420;-65
2021/03/17 13:08:44;;;;;;;4.27;2.27;;;8.20;99.90;;;;;;5095064;28;20165;-65
2021/03/17 13:11:09;;;;;;;3.80;2.40;;;8.30;99.90;;;;;;5095871;28;20264;-65
2021/03/17 13:13:35;;;;;;;5.30;2.63;;;8.40;99.90;;;;;;5094837;28;20155;-65
2021/03/17 13:16:00;;;;;;;2.90;2.17;;;8.40;99.90;;;;;;5095398;28;20270;-66
2021/03/17 13:18:26;;;;;;;2.97;1.73;;;8.40;99.90;;;;;;5095190;28;20249;-65
2021/03/17 13:20:51;;;;;;;4.03;1.90;;;8.30;99.90;;;;;;5095765;28;20165;-65
2021/03/17 13:23:18;;;;;;;2.57;2.00;;;8.30;99.90;;;;;;5094925;28;20153;-65
2021/03/17 13:25:44;;;;;;;2.77;1.77;;;8.30;99.90;;;;;;5094997;28;20175;-65
2021/03/17 13:28:11;;;;;;;2.60;1.53;;;8.30;99.90;;;;;;5095429;28;20755;-65
2021/03/17 13:30:37;;;;;;;5.20;2.20;;;8.30;99.90;;;;;;5093537;28;20403;-65
2021/03/17 13:33:03;;;;;;;3.37;2.20;;;8.50;99.90;;;;;;5094712;28;20391;-65
2021/03/17 13:35:29;;;;;;;4.53;2.00;;;8.50;99.90;;;;;;5094792;28;20887;-65
2021/03/17 13:37:54;;;;;;;5.50;2.23;;;8.60;99.90;;;;;;5093853;28;20553;-65
2021/03/17 13:40:21;;;;;;;3.47;1.50;;;8.50;99.30;;;;;;5094514;28;20514;-65
2021/03/17 13:42:47;;;;;;;2.13;1.93;;;8.50;97.10;;;;;;5094820;28;20584;-65
2021/03/17 13:45:15;;;;;;;6.93;2.67;;;8.50;97.00;;;;;;5109982;28;20449;-65
2021/03/17 13:47:42;;;;;;;7.73;2.43;;;8.40;94.80;;;;;;5113622;28;20395;-65
2021/03/17 13:50:10;;;;;;;2.87;2.30;;;8.30;94.70;;;;;;5114968;28;20425;-65
2021/03/17 13:52:37;;;;;;;3.50;1.80;;;8.20;95.70;;;;;;5114798;28;20399;-65
2021/03/17 13:55:04;;;;;;;5.70;2.20;;;8.20;94.90;;;;;;5113454;28;20466;-65
2021/03/17 13:57:29;;;;;;;6.40;2.10;;;8.20;94.70;;;;;;5113456;28;20394;-65
2021/03/17 13:59:55;;;;;;;4.13;1.93;;;8.30;96.10;;;;;;5114690;28;20765;-65
2021/03/17 14:02:21;;;;;;;2.73;1.77;;;8.30;95.70;;;;;;5113873;28;20181;-65
2021/03/17 14:04:46;;;;;;;7.20;3.27;;;8.30;95.70;;;;;;5114647;28;20674;-65
2021/03/17 14:07:12;;;;;;;8.07;3.50;;;8.40;96.70;;;;;;5114448;28;20157;-65
2021/03/17 14:09:37;;;;;;;5.10;2.10;;;8.40;95.30;;;;;;5114704;28;20156;-65
2021/03/17 14:12:03;;;;;;;3.43;2.50;;;8.50;96.20;;;;;;5114582;28;20162;-65
2021/03/17 14:14:29;;;;;;;5.63;2.67;;;8.50;96.80;;;;;;5114121;28;20708;-65
2021/03/17 14:16:55;;;;;;;4.10;2.07;;;8.50;95.50;;;;;;5114781;28;20390;-65
2021/03/17 14:19:20;;;;;;;3.90;2.43;;;8.40;95.90;;;;;;5113621;28;20184;-65
2021/03/17 14:21:46;;;;;;;4.43;2.10;;;8.20;95.60;;;;;;5114181;28;20160;-65